sensor_id;sensor_type;location;lat;lon;timestamp;pressure;altitude;pressure_sealevel;temperature;humidity
17209;BME280;8720;48.488;9.202;2023-08-01T00:00:48;96096.44;;;23.79;50.33
17209;BME280;8720;48.488;9.202;2023-08-01T00:03:15;96090.66;;;23.84;49.89
17209;BME280;8720;48.488;9.202;2023-08-01T00:05:43;96082.38;;;23.87;50.06
17209;BME280;8720;48.488;9.202;2023-08-01T00:08:11;96079.41;;;23.90;49.81
17209;BME280;8720;48.488;9.202;2023-08-01T00:10:39;96071.13;;;23.93;49.93
17209;BME280;8720;48.488;9.202;2023-08-01T00:13:06;96064.78;;;23.94;49.57
17209;BME280;8720;48.488;9.202;2023-08-01T00:15:34;96059.19;;;23.97;49.59
17209;BME280;8720;48.488;9.202;2023-08-01T00:18:03;96053.25;;;23.93;49.79
17209;BME280;8720;48.488;9.202;2023-08-01T00:20:31;96040.47;;;23.97;49.50
17209;BME280;8720;48.488;9.202;2023-08-01T00:23:01;96042.47;;;24.04;49.64
17209;BME280;8720;48.488;9.202;2023-08-01T00:25:28;96035.16;;;24.06;49.21
17209;BME280;8720;48.488;9.202;2023-08-01T00:27:55;96028.81;;;24.07;49.04
17209;BME280;8720;48.488;9.202;2023-08-01T00:30:23;96025.00;;;24.10;49.00
17209;BME280;8720;48.488;9.202;2023-08-01T00:32:50;96025.56;;;24.13;48.88
17209;BME280;8720;48.488;9.202;2023-08-01T00:35:19;96026.13;;;24.17;48.76
17209;BME280;8720;48.488;9.202;2023-08-01T00:37:47;96009.66;;;24.21;48.49
17209;BME280;8720;48.488;9.202;2023-08-01T00:40:14;96015.53;;;24.25;48.13
17209;BME280;8720;48.488;9.202;2023-08-01T00:42:42;96015.94;;;24.30;48.28
17209;BME280;8720;48.488;9.202;2023-08-01T00:45:11;96007.66;;;24.33;48.46
17209;BME280;8720;48.488;9.202;2023-08-01T00:47:39;96002.00;;;24.36;48.15
17209;BME280;8720;48.488;9.202;2023-08-01T00:50:08;95989.19;;;24.40;47.74
17209;BME280;8720;48.488;9.202;2023-08-01T00:52:36;95973.28;;;24.38;47.95
17209;BME280;8720;48.488;9.202;2023-08-01T00:55:05;95986.63;;;24.48;47.73
17209;BME280;8720;48.488;9.202;2023-08-01T00:57:34;95981.69;;;24.53;47.43
17209;BME280;8720;48.488;9.202;2023-08-01T01:00:01;95989.97;;;24.59;47.60
17209;BME280;8720;48.488;9.202;2023-08-01T01:02:28;95986.69;;;24.65;47.63
17209;BME280;8720;48.488;9.202;2023-08-01T01:04:56;95995.97;;;24.71;46.86
17209;BME280;8720;48.488;9.202;2023-08-01T01:07:24;95987.38;;;24.77;47.13
17209;BME280;8720;48.488;9.202;2023-08-01T01:09:53;95988.63;;;24.82;46.90
17209;BME280;8720;48.488;9.202;2023-08-01T01:12:20;96000.44;;;24.89;46.42
17209;BME280;8720;48.488;9.202;2023-08-01T01:14:48;95984.75;;;24.94;46.57
17209;BME280;8720;48.488;9.202;2023-08-01T01:17:15;95982.47;;;24.99;46.86
17209;BME280;8720;48.488;9.202;2023-08-01T01:19:42;95977.53;;;25.04;46.45
17209;BME280;8720;48.488;9.202;2023-08-01T01:22:11;95985.94;;;25.09;46.08
17209;BME280;8720;48.488;9.202;2023-08-01T01:24:41;95974.63;;;25.15;46.24
17209;BME280;8720;48.488;9.202;2023-08-01T01:27:10;95972.47;;;25.19;46.12
17209;BME280;8720;48.488;9.202;2023-08-01T01:29:40;95963.16;;;25.23;45.89
17209;BME280;8720;48.488;9.202;2023-08-01T01:32:11;95965.53;;;25.26;45.55
17209;BME280;8720;48.488;9.202;2023-08-01T01:34:39;95961.53;;;25.30;45.84
17209;BME280;8720;48.488;9.202;2023-08-01T01:37:06;95963.09;;;25.33;46.18
17209;BME280;8720;48.488;9.202;2023-08-01T01:39:35;95949.41;;;25.36;46.14
17209;BME280;8720;48.488;9.202;2023-08-01T01:42:02;95950.38;;;25.35;45.91
17209;BME280;8720;48.488;9.202;2023-08-01T01:44:30;95950.22;;;25.36;45.86
17209;BME280;8720;48.488;9.202;2023-08-01T01:46:57;95946.72;;;25.36;46.17
17209;BME280;8720;48.488;9.202;2023-08-01T01:49:25;95953.75;;;25.37;45.86
17209;BME280;8720;48.488;9.202;2023-08-01T01:51:52;95939.50;;;25.36;46.40
17209;BME280;8720;48.488;9.202;2023-08-01T01:54:19;95931.78;;;25.33;46.40
17209;BME280;8720;48.488;9.202;2023-08-01T01:56:48;95925.22;;;25.28;46.35
17209;BME280;8720;48.488;9.202;2023-08-01T01:59:15;95923.00;;;25.23;46.64
17209;BME280;8720;48.488;9.202;2023-08-01T02:04:17;95910.38;;;25.15;46.71
17209;BME280;8720;48.488;9.202;2023-08-01T02:06:44;95914.06;;;25.14;46.53
17209;BME280;8720;48.488;9.202;2023-08-01T02:09:11;95903.34;;;25.14;46.68
17209;BME280;8720;48.488;9.202;2023-08-01T02:11:39;95900.78;;;25.13;46.64
17209;BME280;8720;48.488;9.202;2023-08-01T02:14:07;95898.00;;;25.14;46.54
17209;BME280;8720;48.488;9.202;2023-08-01T02:16:34;95892.63;;;25.14;46.10
17209;BME280;8720;48.488;9.202;2023-08-01T02:19:02;95896.13;;;25.15;46.56
17209;BME280;8720;48.488;9.202;2023-08-01T02:21:33;95893.28;;;25.16;45.90
17209;BME280;8720;48.488;9.202;2023-08-01T02:24:01;95895.97;;;25.16;45.83
17209;BME280;8720;48.488;9.202;2023-08-01T02:26:29;95908.38;;;25.17;46.14
17209;BME280;8720;48.488;9.202;2023-08-01T02:28:56;95894.84;;;25.19;45.96
17209;BME280;8720;48.488;9.202;2023-08-01T02:31:25;95894.84;;;25.19;45.86
17209;BME280;8720;48.488;9.202;2023-08-01T02:33:52;95904.41;;;25.21;45.77
17209;BME280;8720;48.488;9.202;2023-08-01T02:36:19;95902.59;;;25.22;45.88
17209;BME280;8720;48.488;9.202;2023-08-01T02:38:47;95902.41;;;25.23;46.13
17209;BME280;8720;48.488;9.202;2023-08-01T02:41:14;95898.72;;;25.24;46.10
17209;BME280;8720;48.488;9.202;2023-08-01T02:43:41;95904.94;;;25.25;46.06
17209;BME280;8720;48.488;9.202;2023-08-01T02:46:08;95902.09;;;25.27;45.66
17209;BME280;8720;48.488;9.202;2023-08-01T02:48:37;95900.09;;;25.29;45.56
17209;BME280;8720;48.488;9.202;2023-08-01T02:51:04;95901.81;;;25.30;45.44
17209;BME280;8720;48.488;9.202;2023-08-01T02:53:35;95896.13;;;25.33;45.74
17209;BME280;8720;48.488;9.202;2023-08-01T02:56:02;95886.28;;;25.33;45.89
17209;BME280;8720;48.488;9.202;2023-08-01T02:58:32;95886.28;;;25.33;45.64
17209;BME280;8720;48.488;9.202;2023-08-01T03:00:59;95884.44;;;25.34;45.83
17209;BME280;8720;48.488;9.202;2023-08-01T03:03:27;95890.50;;;25.36;45.87
17209;BME280;8720;48.488;9.202;2023-08-01T03:05:55;95894.16;;;25.35;45.14
17209;BME280;8720;48.488;9.202;2023-08-01T03:08:23;95894.66;;;25.38;44.97
17209;BME280;8720;48.488;9.202;2023-08-01T03:10:51;95899.34;;;25.36;44.88
17209;BME280;8720;48.488;9.202;2023-08-01T03:13:18;95911.59;;;25.39;45.33
17209;BME280;8720;48.488;9.202;2023-08-01T03:15:45;95894.66;;;25.38;45.17
17209;BME280;8720;48.488;9.202;2023-08-01T03:18:12;95895.69;;;25.37;44.71
17209;BME280;8720;48.488;9.202;2023-08-01T03:20:40;95895.00;;;25.35;44.85
17209;BME280;8720;48.488;9.202;2023-08-01T03:23:09;95888.38;;;25.39;45.23
17209;BME280;8720;48.488;9.202;2023-08-01T03:25:36;95889.19;;;25.40;44.97
17209;BME280;8720;48.488;9.202;2023-08-01T03:28:04;95894.53;;;25.40;45.05
17209;BME280;8720;48.488;9.202;2023-08-01T03:30:32;95885.53;;;25.41;45.12
17209;BME280;8720;48.488;9.202;2023-08-01T03:33:01;95887.66;;;25.37;45.07
17209;BME280;8720;48.488;9.202;2023-08-01T03:35:28;95896.09;;;25.42;45.00
17209;BME280;8720;48.488;9.202;2023-08-01T03:37:55;95894.25;;;25.43;44.98
17209;BME280;8720;48.488;9.202;2023-08-01T03:40:24;95890.56;;;25.44;44.59
17209;BME280;8720;48.488;9.202;2023-08-01T03:42:52;95898.59;;;25.44;44.66
17209;BME280;8720;48.488;9.202;2023-08-01T03:45:19;95897.63;;;25.45;44.84
17209;BME280;8720;48.488;9.202;2023-08-01T03:47:47;95895.78;;;25.45;44.67
17209;BME280;8720;48.488;9.202;2023-08-01T03:50:14;95899.28;;;25.46;44.19
17209;BME280;8720;48.488;9.202;2023-08-01T03:52:41;95904.50;;;25.47;44.54
17209;BME280;8720;48.488;9.202;2023-08-01T03:55:09;95897.28;;;25.48;44.72
17209;BME280;8720;48.488;9.202;2023-08-01T03:57:38;95887.59;;;25.47;44.36
17209;BME280;8720;48.488;9.202;2023-08-01T04:00:07;95887.59;;;25.47;44.79
17209;BME280;8720;48.488;9.202;2023-08-01T04:02:40;95884.06;;;25.46;44.89
17209;BME280;8720;48.488;9.202;2023-08-01T04:05:08;95888.56;;;25.46;44.57
17209;BME280;8720;48.488;9.202;2023-08-01T04:07:36;95892.25;;;25.45;44.73
17209;BME280;8720;48.488;9.202;2023-08-01T04:10:05;95894.09;;;25.44;44.35
17209;BME280;8720;48.488;9.202;2023-08-01T04:12:34;95896.09;;;25.42;44.10
17209;BME280;8720;48.488;9.202;2023-08-01T04:15:04;95898.91;;;25.41;44.54
17209;BME280;8720;48.488;9.202;2023-08-01T04:17:31;95899.91;;;25.40;44.38
17209;BME280;8720;48.488;9.202;2023-08-01T04:19:58;95900.88;;;25.39;44.48
17209;BME280;8720;48.488;9.202;2023-08-01T04:22:26;95900.88;;;25.39;44.03
17209;BME280;8720;48.488;9.202;2023-08-01T04:24:53;95898.34;;;25.37;44.38
17209;BME280;8720;48.488;9.202;2023-08-01T04:27:20;95895.84;;;25.36;44.01
17209;BME280;8720;48.488;9.202;2023-08-01T04:29:48;95879.78;;;25.36;44.23
17209;BME280;8720;48.488;9.202;2023-08-01T04:32:17;95887.81;;;25.36;43.91
17209;BME280;8720;48.488;9.202;2023-08-01T04:34:44;95879.09;;;25.34;43.99
17209;BME280;8720;48.488;9.202;2023-08-01T04:37:11;95864.00;;;25.33;44.40
17209;BME280;8720;48.488;9.202;2023-08-01T04:39:38;95865.00;;;25.32;44.10
17209;BME280;8720;48.488;9.202;2023-08-01T04:42:06;95845.06;;;25.26;43.82
17209;BME280;8720;48.488;9.202;2023-08-01T04:44:34;95852.59;;;25.31;43.96
17209;BME280;8720;48.488;9.202;2023-08-01T04:47:01;95828.50;;;25.31;44.18
17209;BME280;8720;48.488;9.202;2023-08-01T04:49:29;95808.91;;;25.30;44.09
17209;BME280;8720;48.488;9.202;2023-08-01T04:51:57;95779.63;;;25.29;44.12
17209;BME280;8720;48.488;9.202;2023-08-01T04:54:24;95770.59;;;25.30;43.70
17209;BME280;8720;48.488;9.202;2023-08-01T04:56:51;95775.28;;;25.28;43.50
17209;BME280;8720;48.488;9.202;2023-08-01T04:59:18;95728.06;;;25.27;43.42
17209;BME280;8720;48.488;9.202;2023-08-01T05:01:46;95692.44;;;25.26;43.23
17209;BME280;8720;48.488;9.202;2023-08-01T05:04:13;95686.53;;;25.22;43.33
17209;BME280;8720;48.488;9.202;2023-08-01T05:06:42;95687.53;;;25.21;42.91
17209;BME280;8720;48.488;9.202;2023-08-01T05:09:09;95669.94;;;25.19;43.56
17209;BME280;8720;48.488;9.202;2023-08-01T05:11:36;95673.47;;;25.19;42.90
17209;BME280;8720;48.488;9.202;2023-08-01T05:14:07;95681.81;;;25.16;42.74
17209;BME280;8720;48.488;9.202;2023-08-01T05:16:34;95691.38;;;25.19;42.95
17209;BME280;8720;48.488;9.202;2023-08-01T05:19:01;95694.03;;;25.19;42.47
17209;BME280;8720;48.488;9.202;2023-08-01T05:21:29;95689.38;;;25.21;42.35
17209;BME280;8720;48.488;9.202;2023-08-01T05:23:57;95695.75;;;25.20;42.13
17209;BME280;8720;48.488;9.202;2023-08-01T05:26:25;95714.00;;;25.24;42.26
17209;BME280;8720;48.488;9.202;2023-08-01T05:28:52;95723.56;;;25.27;42.19
17209;BME280;8720;48.488;9.202;2023-08-01T05:31:19;95718.72;;;25.31;41.60
17209;BME280;8720;48.488;9.202;2023-08-01T05:33:47;95723.09;;;25.32;41.73
17209;BME280;8720;48.488;9.202;2023-08-01T05:36:14;95714.56;;;25.36;41.59
17209;BME280;8720;48.488;9.202;2023-08-01T05:38:41;95704.41;;;25.40;41.15
17209;BME280;8720;48.488;9.202;2023-08-01T05:41:10;95698.75;;;25.43;40.88
17209;BME280;8720;48.488;9.202;2023-08-01T05:43:37;95696.56;;;25.46;41.10
17209;BME280;8720;48.488;9.202;2023-08-01T05:46:05;95705.13;;;25.50;41.00
17209;BME280;8720;48.488;9.202;2023-08-01T05:48:32;95702.84;;;25.55;40.74
17209;BME280;8720;48.488;9.202;2023-08-01T05:50:59;95710.38;;;25.59;40.82
17209;BME280;8720;48.488;9.202;2023-08-01T05:53:27;95718.91;;;25.63;40.56
17209;BME280;8720;48.488;9.202;2023-08-01T05:55:54;95720.44;;;25.65;40.29
17209;BME280;8720;48.488;9.202;2023-08-01T05:58:23;95712.25;;;25.67;40.78
17209;BME280;8720;48.488;9.202;2023-08-01T06:00:51;95722.81;;;25.68;40.61
17209;BME280;8720;48.488;9.202;2023-08-01T06:03:18;95720.66;;;25.72;40.27
17209;BME280;8720;48.488;9.202;2023-08-01T06:05:45;95738.25;;;25.74;40.40
17209;BME280;8720;48.488;9.202;2023-08-01T06:08:12;95734.78;;;25.90;39.71
17209;BME280;8720;48.488;9.202;2023-08-01T06:10:41;95733.09;;;25.81;40.25
17209;BME280;8720;48.488;9.202;2023-08-01T06:13:09;95736.44;;;25.83;40.47
17209;BME280;8720;48.488;9.202;2023-08-01T06:15:37;95740.13;;;25.82;40.62
17209;BME280;8720;48.488;9.202;2023-08-01T06:18:05;95742.13;;;25.80;40.59
17209;BME280;8720;48.488;9.202;2023-08-01T06:20:32;95736.91;;;25.78;40.12
17209;BME280;8720;48.488;9.202;2023-08-01T06:22:59;95757.84;;;25.75;40.86
17209;BME280;8720;48.488;9.202;2023-08-01T06:25:27;95749.28;;;25.71;40.78
17209;BME280;8720;48.488;9.202;2023-08-01T06:27:54;95751.44;;;25.68;40.78
17209;BME280;8720;48.488;9.202;2023-08-01T06:30:21;95759.94;;;25.63;40.91
17209;BME280;8720;48.488;9.202;2023-08-01T06:32:50;95778.19;;;25.60;40.75
17209;BME280;8720;48.488;9.202;2023-08-01T06:35:17;95766.94;;;25.56;40.92
17209;BME280;8720;48.488;9.202;2023-08-01T06:37:45;95777.16;;;25.53;40.65
17209;BME280;8720;48.488;9.202;2023-08-01T06:40:12;95768.03;;;25.46;40.81
17209;BME280;8720;48.488;9.202;2023-08-01T06:42:40;95756.34;;;25.47;40.87
17209;BME280;8720;48.488;9.202;2023-08-01T06:45:09;95762.69;;;25.46;40.97
17209;BME280;8720;48.488;9.202;2023-08-01T06:47:36;95769.22;;;25.43;40.61
17209;BME280;8720;48.488;9.202;2023-08-01T06:50:06;95777.38;;;25.42;41.39
17209;BME280;8720;48.488;9.202;2023-08-01T06:52:33;95780.22;;;25.40;40.99
17209;BME280;8720;48.488;9.202;2023-08-01T06:55:01;95774.16;;;25.38;41.10
17209;BME280;8720;48.488;9.202;2023-08-01T06:57:28;95785.88;;;25.37;41.12
17209;BME280;8720;48.488;9.202;2023-08-01T06:59:56;95780.69;;;25.36;41.50
17209;BME280;8720;48.488;9.202;2023-08-01T07:02:23;95776.16;;;25.36;41.21
17209;BME280;8720;48.488;9.202;2023-08-01T07:04:51;95774.47;;;25.35;41.60
17209;BME280;8720;48.488;9.202;2023-08-01T07:07:20;95782.53;;;25.35;41.33
17209;BME280;8720;48.488;9.202;2023-08-01T07:09:47;95809.13;;;25.37;41.06
17209;BME280;8720;48.488;9.202;2023-08-01T07:12:15;95791.41;;;25.36;41.56
17209;BME280;8720;48.488;9.202;2023-08-01T07:14:42;95810.84;;;25.38;41.27
17209;BME280;8720;48.488;9.202;2023-08-01T07:17:09;95800.00;;;25.39;41.37
17209;BME280;8720;48.488;9.202;2023-08-01T07:19:37;95814.13;;;25.32;41.60
17209;BME280;8720;48.488;9.202;2023-08-01T07:22:04;95818.41;;;25.42;41.82
17209;BME280;8720;48.488;9.202;2023-08-01T07:24:33;95789.53;;;25.36;41.88
17209;BME280;8720;48.488;9.202;2023-08-01T07:27:00;95795.50;;;25.48;41.84
17209;BME280;8720;48.488;9.202;2023-08-01T07:29:28;95784.66;;;25.49;41.85
17209;BME280;8720;48.488;9.202;2023-08-01T07:31:55;95792.03;;;25.55;41.69
17209;BME280;8720;48.488;9.202;2023-08-01T07:34:22;95795.78;;;25.62;42.04
17209;BME280;8720;48.488;9.202;2023-08-01T07:36:50;95773.09;;;25.74;41.93
17209;BME280;8720;48.488;9.202;2023-08-01T07:39:17;95788.25;;;25.99;42.07
17209;BME280;8720;48.488;9.202;2023-08-01T07:41:46;95784.88;;;26.23;41.39
17209;BME280;8720;48.488;9.202;2023-08-01T07:44:13;95800.19;;;26.39;41.18
17209;BME280;8720;48.488;9.202;2023-08-01T07:46:40;95809.94;;;26.48;41.29
17209;BME280;8720;48.488;9.202;2023-08-01T07:49:08;95791.50;;;26.45;41.10
17209;BME280;8720;48.488;9.202;2023-08-01T07:51:35;95809.78;;;26.57;40.92
17209;BME280;8720;48.488;9.202;2023-08-01T07:54:02;95807.28;;;26.56;41.24
17209;BME280;8720;48.488;9.202;2023-08-01T07:56:30;95808.78;;;26.50;41.23
17209;BME280;8720;48.488;9.202;2023-08-01T07:58:59;95809.44;;;26.44;41.14
17209;BME280;8720;48.488;9.202;2023-08-01T08:01:26;95817.13;;;26.39;40.82
17209;BME280;8720;48.488;9.202;2023-08-01T08:03:53;95809.41;;;26.28;41.60
17209;BME280;8720;48.488;9.202;2023-08-01T08:06:20;95789.78;;;26.02;41.62
17209;BME280;8720;48.488;9.202;2023-08-01T08:08:49;95802.91;;;26.05;42.09
17209;BME280;8720;48.488;9.202;2023-08-01T08:11:16;95810.22;;;25.95;42.36
17209;BME280;8720;48.488;9.202;2023-08-01T08:13:44;95826.56;;;25.84;42.98
17209;BME280;8720;48.488;9.202;2023-08-01T08:16:12;95825.44;;;25.69;43.58
17209;BME280;8720;48.488;9.202;2023-08-01T08:18:41;95815.47;;;25.53;43.80
17209;BME280;8720;48.488;9.202;2023-08-01T08:21:08;95804.91;;;25.34;44.71
17209;BME280;8720;48.488;9.202;2023-08-01T08:23:36;95796.25;;;25.14;44.99
17209;BME280;8720;48.488;9.202;2023-08-01T08:26:03;95789.72;;;24.91;45.70
17209;BME280;8720;48.488;9.202;2023-08-01T08:28:33;95808.69;;;24.71;45.74
17209;BME280;8720;48.488;9.202;2023-08-01T08:31:01;95806.16;;;24.52;47.01
17209;BME280;8720;48.488;9.202;2023-08-01T08:33:30;95807.66;;;24.37;47.04
17209;BME280;8720;48.488;9.202;2023-08-01T08:35:58;95816.88;;;24.24;47.88
17209;BME280;8720;48.488;9.202;2023-08-01T08:38:25;95831.28;;;24.14;47.99
17209;BME280;8720;48.488;9.202;2023-08-01T08:41:08;95848.06;;;24.06;48.00
17209;BME280;8720;48.488;9.202;2023-08-01T08:43:36;95845.09;;;24.00;48.57
17209;BME280;8720;48.488;9.202;2023-08-01T08:46:05;95832.75;;;23.89;48.92
17209;BME280;8720;48.488;9.202;2023-08-01T08:48:35;95840.22;;;23.86;49.55
17209;BME280;8720;48.488;9.202;2023-08-01T08:51:03;95825.09;;;23.77;49.99
17209;BME280;8720;48.488;9.202;2023-08-01T08:53:31;95823.41;;;23.66;50.03
17209;BME280;8720;48.488;9.202;2023-08-01T08:56:01;95828.38;;;23.61;50.71
17209;BME280;8720;48.488;9.202;2023-08-01T08:58:30;95781.59;;;23.48;50.42
17209;BME280;8720;48.488;9.202;2023-08-01T09:00:58;95835.16;;;23.46;50.70
17209;BME280;8720;48.488;9.202;2023-08-01T09:03:28;95840.75;;;23.43;51.33
17209;BME280;8720;48.488;9.202;2023-08-01T09:06:04;95821.66;;;23.38;51.27
17209;BME280;8720;48.488;9.202;2023-08-01T09:08:39;95814.09;;;23.33;51.41
17209;BME280;8720;48.488;9.202;2023-08-01T09:11:07;95812.94;;;23.26;51.29
17209;BME280;8720;48.488;9.202;2023-08-01T09:13:34;95822.06;;;23.24;51.85
17209;BME280;8720;48.488;9.202;2023-08-01T09:16:02;95816.63;;;23.16;52.06
17209;BME280;8720;48.488;9.202;2023-08-01T09:18:30;95812.66;;;23.20;51.72
17209;BME280;8720;48.488;9.202;2023-08-01T09:20:59;95817.19;;;23.19;52.12
17209;BME280;8720;48.488;9.202;2023-08-01T09:23:28;95812.81;;;23.18;52.14
17209;BME280;8720;48.488;9.202;2023-08-01T09:25:56;95823.34;;;23.20;52.34
17209;BME280;8720;48.488;9.202;2023-08-01T09:28:24;95819.00;;;23.19;52.23
17209;BME280;8720;48.488;9.202;2023-08-01T09:30:55;95826.47;;;23.34;52.11
17209;BME280;8720;48.488;9.202;2023-08-01T09:33:24;95841.19;;;23.48;52.71
17209;BME280;8720;48.488;9.202;2023-08-01T09:35:52;95835.09;;;23.65;52.81
17209;BME280;8720;48.488;9.202;2023-08-01T09:38:21;95840.09;;;23.78;53.04
17209;BME280;8720;48.488;9.202;2023-08-01T09:40:49;95836.97;;;23.92;52.69
17209;BME280;8720;48.488;9.202;2023-08-01T09:43:16;95834.41;;;24.00;52.25
17209;BME280;8720;48.488;9.202;2023-08-01T09:45:51;95831.19;;;24.06;52.04
17209;BME280;8720;48.488;9.202;2023-08-01T09:48:26;95842.75;;;24.24;52.57
17209;BME280;8720;48.488;9.202;2023-08-01T09:51:08;95833.16;;;24.31;52.16
17209;BME280;8720;48.488;9.202;2023-08-01T09:53:48;95837.63;;;24.40;51.91
17209;BME280;8720;48.488;9.202;2023-08-01T09:56:21;95824.09;;;24.42;51.58
17209;BME280;8720;48.488;9.202;2023-08-01T09:58:50;95840.63;;;24.55;52.01
17209;BME280;8720;48.488;9.202;2023-08-01T10:01:23;95844.66;;;24.59;51.59
17209;BME280;8720;48.488;9.202;2023-08-01T10:03:52;95847.97;;;24.70;51.58
17209;BME280;8720;48.488;9.202;2023-08-01T10:06:23;95853.75;;;24.75;51.59
17209;BME280;8720;48.488;9.202;2023-08-01T10:08:53;95850.94;;;24.77;52.02
17209;BME280;8720;48.488;9.202;2023-08-01T10:11:22;95868.69;;;24.78;51.49
17209;BME280;8720;48.488;9.202;2023-08-01T10:13:49;95872.19;;;24.78;51.92
17209;BME280;8720;48.488;9.202;2023-08-01T10:16:17;95888.94;;;24.71;52.15
17209;BME280;8720;48.488;9.202;2023-08-01T10:18:44;95875.53;;;24.53;52.16
17209;BME280;8720;48.488;9.202;2023-08-01T10:21:15;95871.25;;;24.43;52.61
17209;BME280;8720;48.488;9.202;2023-08-01T10:23:45;95887.06;;;24.26;52.95
17209;BME280;8720;48.488;9.202;2023-08-01T10:26:15;95888.97;;;24.07;53.53
17209;BME280;8720;48.488;9.202;2023-08-01T10:28:51;95871.03;;;23.80;53.58
17209;BME280;8720;48.488;9.202;2023-08-01T10:31:20;95878.09;;;23.72;54.04
17209;BME280;8720;48.488;9.202;2023-08-01T10:33:49;95869.97;;;23.64;54.79
17209;BME280;8720;48.488;9.202;2023-08-01T10:36:18;95876.16;;;23.55;55.34
17209;BME280;8720;48.488;9.202;2023-08-01T10:38:48;95861.28;;;23.52;55.33
17209;BME280;8720;48.488;9.202;2023-08-01T10:41:24;95864.22;;;23.49;55.28
17209;BME280;8720;48.488;9.202;2023-08-01T10:44:05;95857.63;;;23.43;55.99
17209;BME280;8720;48.488;9.202;2023-08-01T10:46:49;95873.09;;;23.50;56.18
17209;BME280;8720;48.488;9.202;2023-08-01T10:49:18;95870.25;;;23.61;56.90
17209;BME280;8720;48.488;9.202;2023-08-01T10:51:47;95866.28;;;23.74;56.84
17209;BME280;8720;48.488;9.202;2023-08-01T10:54:19;95881.28;;;23.94;56.90
17209;BME280;8720;48.488;9.202;2023-08-01T10:56:51;95870.97;;;24.09;57.14
17209;BME280;8720;48.488;9.202;2023-08-01T10:59:21;95881.19;;;24.23;57.50
17209;BME280;8720;48.488;9.202;2023-08-01T11:01:50;95879.53;;;24.40;56.71
17209;BME280;8720;48.488;9.202;2023-08-01T11:04:19;95884.13;;;24.57;57.02
17209;BME280;8720;48.488;9.202;2023-08-01T11:06:49;95876.47;;;24.62;56.87
17209;BME280;8720;48.488;9.202;2023-08-01T11:09:19;95888.91;;;24.80;56.69
17209;BME280;8720;48.488;9.202;2023-08-01T11:11:52;95886.66;;;24.85;56.79
17209;BME280;8720;48.488;9.202;2023-08-01T11:14:21;95882.44;;;25.00;56.38
17209;BME280;8720;48.488;9.202;2023-08-01T11:16:50;95892.75;;;25.13;56.76
17209;BME280;8720;48.488;9.202;2023-08-01T11:19:19;95890.69;;;25.24;56.95
17209;BME280;8720;48.488;9.202;2023-08-01T11:21:47;95874.41;;;25.36;56.40
17209;BME280;8720;48.488;9.202;2023-08-01T11:24:15;95876.56;;;25.50;56.80
17209;BME280;8720;48.488;9.202;2023-08-01T11:26:45;95887.56;;;25.64;57.09
17209;BME280;8720;48.488;9.202;2023-08-01T11:29:14;95890.16;;;25.74;56.49
17209;BME280;8720;48.488;9.202;2023-08-01T11:31:53;95895.69;;;25.80;55.98
17209;BME280;8720;48.488;9.202;2023-08-01T11:34:20;95890.91;;;25.84;56.57
17209;BME280;8720;48.488;9.202;2023-08-01T11:36:48;95897.31;;;25.91;56.16
17209;BME280;8720;48.488;9.202;2023-08-01T11:39:16;95893.38;;;26.03;56.62
17209;BME280;8720;48.488;9.202;2023-08-01T11:41:44;95887.25;;;26.11;56.09
17209;BME280;8720;48.488;9.202;2023-08-01T11:44:13;95885.94;;;26.23;55.98
17209;BME280;8720;48.488;9.202;2023-08-01T11:46:40;95900.75;;;26.35;55.58
17209;BME280;8720;48.488;9.202;2023-08-01T11:49:08;95893.94;;;26.48;54.88
17209;BME280;8720;48.488;9.202;2023-08-01T11:51:40;95897.69;;;26.55;54.36
17209;BME280;8720;48.488;9.202;2023-08-01T11:54:09;95901.75;;;26.67;53.63
17209;BME280;8720;48.488;9.202;2023-08-01T11:56:38;95907.50;;;26.72;53.11
17209;BME280;8720;48.488;9.202;2023-08-01T11:59:09;95902.81;;;26.74;52.72
17209;BME280;8720;48.488;9.202;2023-08-01T12:01:43;95906.03;;;26.78;52.75
17209;BME280;8720;48.488;9.202;2023-08-01T12:04:12;95908.88;;;26.84;52.42
17209;BME280;8720;48.488;9.202;2023-08-01T12:06:39;95910.44;;;26.95;52.29
17209;BME280;8720;48.488;9.202;2023-08-01T12:09:12;95903.72;;;26.99;51.98
17209;BME280;8720;48.488;9.202;2023-08-01T12:11:41;95916.19;;;27.16;51.69
17209;BME280;8720;48.488;9.202;2023-08-01T12:14:11;95927.09;;;27.31;50.58
17209;BME280;8720;48.488;9.202;2023-08-01T12:16:42;95923.13;;;27.35;50.32
17209;BME280;8720;48.488;9.202;2023-08-01T12:19:16;95920.13;;;27.46;48.96
17209;BME280;8720;48.488;9.202;2023-08-01T12:21:45;95925.84;;;27.51;48.51
17209;BME280;8720;48.488;9.202;2023-08-01T12:24:12;95925.50;;;27.46;48.11
17209;BME280;8720;48.488;9.202;2023-08-01T12:26:39;95927.84;;;27.49;48.21
17209;BME280;8720;48.488;9.202;2023-08-01T12:29:07;95925.00;;;27.50;47.70
17209;BME280;8720;48.488;9.202;2023-08-01T12:31:34;95929.88;;;27.55;47.57
17209;BME280;8720;48.488;9.202;2023-08-01T12:34:03;95914.91;;;27.44;46.83
17209;BME280;8720;48.488;9.202;2023-08-01T12:36:30;95927.34;;;27.45;47.39
17209;BME280;8720;48.488;9.202;2023-08-01T12:38:58;95933.41;;;27.47;46.85
17209;BME280;8720;48.488;9.202;2023-08-01T12:41:25;95921.13;;;27.37;46.27
17209;BME280;8720;48.488;9.202;2023-08-01T12:43:53;95931.19;;;27.35;46.35
17209;BME280;8720;48.488;9.202;2023-08-01T12:46:20;95925.75;;;27.27;46.36
17209;BME280;8720;48.488;9.202;2023-08-01T12:48:47;95932.31;;;27.16;45.93
17209;BME280;8720;48.488;9.202;2023-08-01T12:51:16;95933.44;;;27.06;46.05
17209;BME280;8720;48.488;9.202;2023-08-01T12:53:43;95935.97;;;27.07;46.79
17209;BME280;8720;48.488;9.202;2023-08-01T12:56:13;95936.50;;;27.11;46.79
17209;BME280;8720;48.488;9.202;2023-08-01T12:58:40;95930.94;;;27.12;46.51
17209;BME280;8720;48.488;9.202;2023-08-01T13:01:08;95938.69;;;27.23;46.06
17209;BME280;8720;48.488;9.202;2023-08-01T13:03:35;95941.88;;;27.27;45.97
17209;BME280;8720;48.488;9.202;2023-08-01T13:06:03;95945.25;;;27.29;46.22
17209;BME280;8720;48.488;9.202;2023-08-01T13:08:32;95934.19;;;27.32;45.83
17209;BME280;8720;48.488;9.202;2023-08-01T13:11:00;95948.81;;;27.37;45.18
17209;BME280;8720;48.488;9.202;2023-08-01T13:13:28;95945.78;;;27.40;45.34
17209;BME280;8720;48.488;9.202;2023-08-01T13:15:56;95938.28;;;27.44;44.85
17209;BME280;8720;48.488;9.202;2023-08-01T13:18:24;95936.25;;;27.46;44.95